Time;durP1;ratioP1;P1;durP2;ratioP2;P2;SDS_P1;SDS_P2;PMS_P1;PMS_P2;Temp;Humidity;BMP_temperature;BMP_pressure;BME280_temperature;BME280_humidity;BME280_pressure;Samples;Min_cycle;Max_cycle;Signal;HPM_P1;HPM_P2
2021/11/21 00:01:28;;;;;;;37.57;25.57;;;10.20;99.90;;;10.15;70.29;100678.78;4986184;28;20196;-79
2021/11/21 00:03:57;;;;;;;33.72;23.38;;;10.10;99.90;;;10.13;70.28;100670.84;4996743;28;20538;-81
2021/11/21 00:06:27;;;;;;;36.67;25.57;;;10.10;99.90;;;10.11;70.62;100672.94;4990041;28;20673;-78
2021/11/21 00:08:56;;;;;;;40.80;25.23;;;10.10;99.90;;;10.14;70.38;100683.34;5008595;28;20430;-79
2021/11/21 00:11:24;;;;;;;34.47;25.50;;;10.10;99.90;;;10.08;70.53;100670.63;4991237;28;20431;-78
2021/11/21 00:13:53;;;;;;;35.20;24.70;;;10.00;99.90;;;10.15;70.63;100665.25;5002481;28;20223;-78
2021/11/21 00:16:23;;;;;;;36.00;26.20;;;10.00;99.90;;;10.16;70.36;100664.25;5007303;28;20498;-77
2021/11/21 00:18:52;;;;;;;34.43;23.13;;;10.10;99.90;;;10.25;70.25;100660.31;5005585;28;20855;-80
2021/11/21 00:21:21;;;;;;;34.97;24.67;;;10.10;99.90;;;10.17;70.15;100657.78;5008917;28;20461;-79
2021/11/21 00:23:50;;;;;;;36.97;28.75;;;10.10;99.90;;;10.18;69.94;100649.47;5001258;28;20210;-78
2021/11/21 00:26:19;;;;;;;35.57;25.60;;;10.10;99.90;;;10.10;70.45;100656.91;5006607;28;20210;-79
2021/11/21 00:28:50;;;;;;;34.35;26.40;;;10.00;99.90;;;10.13;70.02;100654.63;5018699;28;20418;-79
2021/11/21 00:31:21;;;;;;;31.52;22.65;;;10.00;99.90;;;10.06;70.22;100658.38;4995033;28;20196;-77
2021/11/21 00:33:51;;;;;;;30.25;22.50;;;10.00;99.90;;;10.09;69.81;100653.38;5010493;28;20211;-77
2021/11/21 00:36:20;;;;;;;36.90;25.80;;;10.00;99.90;;;10.11;69.88;100647.78;5001963;28;20215;-79
2021/11/21 00:38:49;;;;;;;35.30;25.00;;;10.00;99.90;;;10.03;70.03;100646.91;5001907;28;20507;-79
2021/11/21 00:41:17;;;;;;;32.70;25.53;;;9.90;99.90;;;10.16;69.83;100642.63;5010813;28;20287;-80
2021/11/21 00:43:46;;;;;;;27.33;19.65;;;10.00;99.90;;;10.01;70.10;100638.19;5001044;28;20450;-78
2021/11/21 00:46:15;;;;;;;32.35;22.67;;;10.00;99.90;;;10.02;70.07;100634.44;4986217;28;20222;-80
2021/11/21 00:48:45;;;;;;;32.70;23.40;;;10.00;99.90;;;10.06;70.01;100625.94;5001396;28;20193;-78
2021/11/21 00:51:18;;;;;;;32.80;25.67;;;10.00;99.90;;;10.06;70.01;100634.03;4990685;28;20423;-79
2021/11/21 00:53:52;;;;;;;33.63;24.40;;;9.90;99.90;;;10.10;69.95;100627.19;5003972;28;20454;-76
2021/11/21 00:56:21;;;;;;;35.30;23.15;;;10.00;99.90;;;10.17;69.86;100619.94;4995346;28;20207;-77
2021/11/21 00:58:50;;;;;;;26.83;19.95;;;10.00;99.90;;;10.01;70.00;100627.38;4993435;28;20704;-77
2021/11/21 01:01:20;;;;;;;32.72;21.63;;;10.00;99.90;;;10.00;70.12;100624.88;5000440;28;20214;-77
2021/11/21 01:03:52;;;;;;;32.53;20.52;;;10.00;99.90;;;10.02;70.34;100617.41;5006480;28;20207;-77
2021/11/21 01:06:22;;;;;;;32.27;23.13;;;9.90;99.90;;;10.05;69.95;100622.38;5003790;28;20270;-78
2021/11/21 01:08:52;;;;;;;30.23;21.37;;;10.00;99.90;;;10.01;69.98;100615.72;4994208;28;20457;-78
2021/11/21 01:11:21;;;;;;;36.05;25.27;;;9.90;99.90;;;10.15;69.59;100612.00;5001334;28;20453;-78
2021/11/21 01:13:50;;;;;;;30.55;20.17;;;10.00;99.90;;;10.12;69.70;100611.59;5032761;22;20232;-77
2021/11/21 01:16:19;;;;;;;28.07;19.83;;;10.00;99.90;;;10.03;69.92;100611.78;5040134;28;20224;-76
2021/11/21 01:18:48;;;;;;;30.63;19.02;;;10.00;99.90;;;10.03;69.70;100609.06;5041042;28;20466;-76
2021/11/21 01:21:17;;;;;;;34.30;23.77;;;9.90;99.90;;;10.07;70.00;100608.69;5037827;28;20224;-77
2021/11/21 01:23:48;;;;;;;29.07;21.83;;;10.00;99.90;;;10.07;70.12;100605.97;5040309;28;20265;-77
2021/11/21 01:26:17;;;;;;;31.45;21.77;;;9.90;99.90;;;10.13;69.77;100607.81;5041694;28;20491;-77
2021/11/21 01:28:46;;;;;;;29.17;21.25;;;10.00;99.90;;;10.09;69.76;100607.41;5040788;28;20954;-76
2021/11/21 01:31:15;;;;;;;28.05;21.05;;;10.00;99.90;;;10.00;69.80;100601.38;5040664;28;20252;-79
2021/11/21 01:33:44;;;;;;;26.20;19.73;;;9.90;99.90;;;10.04;69.92;100588.28;5040491;28;20213;-75
2021/11/21 01:36:13;;;;;;;28.87;20.33;;;9.90;99.90;;;10.10;69.73;100586.63;5041373;28;20170;-78
2021/11/21 01:38:43;;;;;;;27.17;19.25;;;10.00;99.90;;;10.01;69.97;100583.28;5038468;28;20433;-76
2021/11/21 01:41:14;;;;;;;31.98;21.92;;;9.90;99.90;;;9.97;69.97;100580.13;5039416;28;20181;-75
2021/11/21 01:43:44;;;;;;;26.65;18.70;;;9.90;99.90;;;9.89;70.09;100574.94;5039393;28;20724;-78
2021/11/21 01:46:13;;;;;;;27.63;19.30;;;9.80;99.90;;;9.87;70.23;100560.81;5039901;28;20564;-77
2021/11/21 01:48:43;;;;;;;29.38;20.60;;;9.80;99.90;;;10.01;69.82;100567.91;5040769;28;20709;-77
2021/11/21 01:51:12;;;;;;;27.10;20.55;;;9.90;99.90;;;9.97;70.01;100566.63;5040700;28;20316;-77
2021/11/21 01:53:41;;;;;;;29.67;19.65;;;9.90;99.90;;;9.97;69.99;100568.53;5039529;28;20224;-76
2021/11/21 01:56:11;;;;;;;30.85;21.42;;;9.90;99.90;;;9.94;69.77;100558.94;5040588;28;20190;-76
2021/11/21 01:58:41;;;;;;;31.25;22.42;;;9.90;99.90;;;9.96;69.74;100556.88;5040082;28;20204;-78
2021/11/21 02:01:10;;;;;;;29.93;21.77;;;9.80;99.90;;;10.02;69.64;100547.91;5044495;28;20178;-78
2021/11/21 02:03:39;;;;;;;25.42;19.63;;;9.90;99.90;;;9.95;69.73;100551.66;5043737;28;20458;-76
2021/11/21 02:06:08;;;;;;;26.48;18.80;;;9.90;99.90;;;9.95;69.65;100546.25;5042427;28;20260;-77
2021/11/21 02:08:37;;;;;;;27.03;19.63;;;9.90;99.90;;;9.97;69.54;100539.59;5044129;28;20184;-76
2021/11/21 02:11:07;;;;;;;31.40;21.77;;;9.80;99.90;;;9.95;69.33;100530.88;5039165;28;20444;-78
2021/11/21 02:13:36;;;;;;;27.80;23.23;;;9.80;99.90;;;9.97;69.28;100523.38;5038666;28;20213;-76
2021/11/21 02:16:08;;;;;;;29.02;21.15;;;9.90;99.90;;;9.98;69.37;100513.41;5035052;28;20189;-76
2021/11/21 02:18:37;;;;;;;30.30;21.92;;;9.90;99.90;;;10.03;69.00;100508.22;5035075;28;20221;-76
2021/11/21 02:21:08;;;;;;;25.60;19.35;;;9.90;99.90;;;9.94;69.11;100507.59;5035442;28;20174;-77
2021/11/21 02:23:37;;;;;;;31.17;20.90;;;9.90;99.90;;;9.96;69.25;100510.94;5038584;28;20205;-77
2021/11/21 02:26:06;;;;;;;30.00;22.42;;;9.90;99.90;;;9.90;69.16;100500.09;5037173;28;20280;-77
2021/11/21 02:28:37;;;;;;;27.60;20.40;;;9.80;99.90;;;9.92;69.51;100495.34;5037014;28;20200;-77
2021/11/21 02:31:07;;;;;;;27.75;21.58;;;9.80;99.90;;;9.81;68.98;100485.97;5040423;28;20233;-76
2021/11/21 02:33:36;;;;;;;32.40;22.05;;;9.80;99.90;;;9.79;69.32;100487.19;5036555;28;20210;-76
2021/11/21 02:36:10;;;;;;;25.83;21.27;;;9.70;99.90;;;9.89;69.23;100493.88;5039875;28;20186;-78
2021/11/21 02:38:39;;;;;;;28.05;20.02;;;9.80;99.90;;;9.87;68.98;100485.16;5039074;28;20256;-77
2021/11/21 02:41:09;;;;;;;31.10;21.83;;;9.80;99.90;;;9.79;69.17;100479.94;5041344;28;20190;-77
2021/11/21 02:43:41;;;;;;;27.02;20.13;;;9.70;99.90;;;9.87;69.01;100479.75;5042521;28;20629;-76
2021/11/21 02:46:10;;;;;;;29.08;21.80;;;9.70;99.90;;;9.82;69.13;100471.41;5042497;28;20197;-76
2021/11/21 02:48:39;;;;;;;27.75;20.73;;;9.70;99.90;;;9.79;69.07;100465.59;5042161;28;20221;-74
2021/11/21 02:51:13;;;;;;;32.00;23.70;;;9.70;99.90;;;9.79;69.17;100471.81;5040764;28;20185;-77
2021/11/21 02:53:45;;;;;;;29.23;22.50;;;9.70;99.90;;;9.82;68.85;100471.41;5040215;28;20685;-78
2021/11/21 02:56:17;;;;;;;32.33;21.70;;;9.70;99.90;;;9.83;69.01;100473.06;5042382;28;20180;-74
2021/11/21 02:58:48;;;;;;;30.52;22.13;;;9.70;99.90;;;9.74;69.12;100477.00;5040444;28;20189;-77
2021/11/21 03:01:22;;;;;;;39.00;23.58;;;9.70;99.90;;;9.76;69.04;100469.53;5040359;28;20642;-77
2021/11/21 03:03:52;;;;;;;28.90;22.13;;;9.70;99.90;;;9.86;68.72;100469.97;5042201;28;20572;-76
2021/11/21 03:06:22;;;;;;;28.63;21.55;;;9.70;99.90;;;9.72;68.98;100467.47;5041382;28;20217;-75
2021/11/21 03:08:53;;;;;;;30.45;22.30;;;9.60;99.90;;;9.73;68.75;100463.72;5045371;28;20232;-77
2021/11/21 03:11:31;;;;;;;28.77;21.92;;;9.60;99.90;;;9.74;68.63;100468.06;5045211;28;20161;-75
2021/11/21 03:14:03;;;;;;;33.78;23.33;;;9.70;99.90;;;9.73;68.75;100466.44;5045675;28;20289;-77
2021/11/21 03:16:32;;;;;;;34.35;23.25;;;9.60;99.90;;;9.73;68.79;100459.13;5042854;28;20620;-76
2021/11/21 03:19:01;;;;;;;34.35;22.50;;;9.60;99.90;;;9.70;68.89;100462.25;5044007;28;20188;-77
2021/11/21 03:21:32;;;;;;;34.95;24.65;;;9.60;99.90;;;9.72;68.75;100454.78;5042489;28;20249;-75
2021/11/21 03:24:00;;;;;;;36.28;23.75;;;9.60;99.90;;;9.71;68.91;100447.72;5042338;28;20224;-75
2021/11/21 03:26:29;;;;;;;32.88;23.80;;;9.60;99.90;;;9.76;68.65;100445.22;5042372;28;20189;-75
2021/11/21 03:28:58;;;;;;;34.20;24.80;;;9.60;99.90;;;9.67;68.98;100449.16;5047193;28;20261;-74
2021/11/21 03:31:32;;;;;;;31.50;22.92;;;9.60;99.90;;;9.69;68.63;100455.19;5046447;28;20192;-77
2021/11/21 03:34:01;;;;;;;31.83;24.25;;;9.60;99.90;;;9.66;68.57;100458.31;5044280;28;20216;-75
2021/11/21 03:36:33;;;;;;;32.13;23.10;;;9.60;99.90;;;9.69;68.55;100451.66;5044641;28;20174;-77
2021/11/21 03:39:03;;;;;;;35.05;23.20;;;9.60;99.90;;;9.74;68.40;100452.69;5046717;28;20208;-76
2021/11/21 03:41:33;;;;;;;36.88;24.83;;;9.60;99.90;;;9.61;68.78;100452.69;5053658;28;20197;-73
2021/11/21 03:44:02;;;;;;;34.50;24.15;;;9.60;99.90;;;9.55;68.66;100437.31;5057092;28;20213;-72
2021/11/21 03:46:32;;;;;;;32.55;23.63;;;9.50;99.90;;;9.64;68.72;100441.47;5057823;28;20335;-73
2021/11/21 03:49:01;;;;;;;36.63;25.60;;;9.50;99.90;;;9.61;68.73;100447.28;5055030;28;20212;-74
2021/11/21 03:51:32;;;;;;;33.55;24.80;;;9.50;99.90;;;9.65;68.66;100442.28;5056677;28;20190;-75
2021/11/21 03:54:00;;;;;;;33.25;23.77;;;9.50;99.90;;;9.50;69.02;100445.19;5058583;28;20399;-74
2021/11/21 03:56:31;;;;;;;39.92;25.55;;;9.40;99.90;;;9.53;68.86;100447.50;5056285;28;20188;-74
2021/11/21 03:58:59;;;;;;;34.35;23.95;;;9.50;99.90;;;9.53;69.03;100439.41;5054143;28;20201;-77
2021/11/21 04:01:28;;;;;;;39.78;24.75;;;9.50;99.90;;;9.50;68.88;100437.94;5043964;28;20264;-77
2021/11/21 04:03:57;;;;;;;36.88;27.05;;;9.40;99.90;;;9.61;68.70;100436.47;5040705;28;20271;-76
2021/11/21 04:06:26;;;;;;;38.20;27.30;;;9.50;99.90;;;9.59;68.80;100439.38;5040054;28;20216;-77
2021/11/21 04:08:56;;;;;;;34.80;25.15;;;9.50;99.90;;;9.51;68.81;100436.06;5039366;28;20213;-76
2021/11/21 04:11:25;;;;;;;41.90;28.35;;;9.50;99.90;;;9.51;69.10;100430.66;5041193;28;20185;-76
2021/11/21 04:13:55;;;;;;;35.58;25.55;;;9.40;99.90;;;9.47;69.13;100426.72;5039935;28;20620;-76
2021/11/21 04:16:24;;;;;;;36.30;25.67;;;9.40;99.90;;;9.58;68.99;100432.31;5040129;28;20220;-77
2021/11/21 04:18:53;;;;;;;35.92;24.80;;;9.40;99.90;;;9.51;69.17;100425.25;5042507;28;21044;-76
2021/11/21 04:21:22;;;;;;;38.22;27.35;;;9.40;99.90;;;9.55;68.64;100430.03;5042285;28;20213;-76
2021/11/21 04:23:54;;;;;;;41.47;25.02;;;9.50;99.90;;;9.49;68.95;100419.22;5043494;28;20255;-77
2021/11/21 04:26:25;;;;;;;40.45;26.20;;;9.40;99.90;;;9.46;69.06;100406.13;5043426;28;20696;-77
2021/11/21 04:28:54;;;;;;;40.58;26.55;;;9.40;99.90;;;9.51;68.88;100412.59;5042722;28;20232;-76
2021/11/21 04:31:23;;;;;;;42.45;27.83;;;9.40;99.90;;;9.48;69.01;100412.16;5044821;28;20363;-79
2021/11/21 04:33:52;;;;;;;31.88;22.77;;;9.40;99.90;;;9.51;69.09;100409.88;5042822;28;20690;-76
2021/11/21 04:36:21;;;;;;;39.90;25.58;;;9.40;99.90;;;9.36;69.39;100403.00;5041992;28;20220;-77
2021/11/21 04:38:50;;;;;;;42.95;26.13;;;9.30;99.90;;;9.41;69.18;100404.06;5043181;28;20196;-77
2021/11/21 04:41:20;;;;;;;36.22;25.92;;;9.30;99.90;;;9.35;69.47;100404.03;5042098;28;20189;-76
2021/11/21 04:43:50;;;;;;;35.05;25.33;;;9.30;99.90;;;9.45;69.33;100399.06;5042041;28;20237;-76
2021/11/21 04:46:19;;;;;;;39.63;27.45;;;9.30;99.90;;;9.38;69.57;100395.53;5041718;28;20220;-76
2021/11/21 04:48:48;;;;;;;35.97;25.27;;;9.30;99.90;;;9.32;69.71;100393.66;5044103;28;20216;-75
2021/11/21 04:51:17;;;;;;;46.35;27.55;;;9.20;99.90;;;9.29;69.94;100394.09;5042345;28;20190;-76
2021/11/21 04:53:46;;;;;;;40.92;28.77;;;9.20;99.90;;;9.20;70.45;100384.53;5041498;28;20209;-76
2021/11/21 04:56:16;;;;;;;46.30;29.30;;;9.10;99.90;;;9.35;70.28;100393.25;5041328;28;20239;-77
2021/11/21 04:58:45;;;;;;;36.25;25.27;;;9.20;99.90;;;9.18;70.37;100394.69;5040650;28;20197;-77
2021/11/21 05:01:15;;;;;;;44.28;26.70;;;9.20;99.90;;;9.26;70.38;100389.91;5039253;28;20196;-77
2021/11/21 05:03:44;;;;;;;45.90;25.38;;;9.20;99.90;;;9.25;70.33;100382.00;5039986;28;20208;-74
2021/11/21 05:06:13;;;;;;;41.30;27.00;;;9.10;99.90;;;9.22;70.60;100382.44;5040967;28;20610;-76
2021/11/21 05:08:42;;;;;;;38.25;26.15;;;9.10;99.90;;;9.29;70.42;100380.59;5041603;28;20198;-78
2021/11/21 05:11:10;;;;;;;40.67;28.05;;;9.20;99.90;;;9.23;70.31;100378.69;5040900;28;20178;-75
2021/11/21 05:13:39;;;;;;;41.92;25.52;;;9.10;99.90;;;9.16;70.50;100384.91;5041700;28;20221;-77
2021/11/21 05:16:08;;;;;;;38.08;24.45;;;9.10;99.90;;;9.14;70.55;100365.41;5044190;28;20194;-76
2021/11/21 05:18:38;;;;;;;46.42;25.50;;;9.10;99.90;;;9.23;70.55;100368.72;5048049;28;20185;-76
2021/11/21 05:21:07;;;;;;;37.38;25.08;;;9.10;99.90;;;9.23;70.52;100362.50;5047272;28;20661;-76
2021/11/21 05:23:36;;;;;;;38.67;26.98;;;9.10;99.90;;;9.16;70.80;100366.00;5046437;28;20247;-77
2021/11/21 05:26:05;;;;;;;39.38;26.02;;;9.10;99.90;;;9.07;71.23;100363.72;5043576;28;20201;-77
2021/11/21 05:28:35;;;;;;;41.40;26.65;;;9.00;99.90;;;9.13;70.97;100360.19;5043100;28;20208;-77
2021/11/21 05:31:04;;;;;;;34.10;24.08;;;9.10;99.90;;;9.14;71.13;100368.09;5042325;28;20200;-76
2021/11/21 05:33:33;;;;;;;37.00;23.10;;;9.10;99.90;;;9.07;71.11;100366.41;5042052;28;20266;-77
2021/11/21 05:36:03;;;;;;;39.17;25.90;;;9.00;99.90;;;9.19;70.80;100372.06;5043294;28;20181;-77
2021/11/21 05:38:32;;;;;;;40.30;24.45;;;9.10;99.90;;;8.97;71.42;100369.50;5041973;28;20178;-77
2021/11/21 05:41:01;;;;;;;36.22;25.83;;;8.90;99.90;;;9.07;71.27;100369.13;5041230;28;20562;-78
2021/11/21 05:43:30;;;;;;;39.55;26.00;;;9.00;99.90;;;9.05;71.14;100365.81;5041872;28;20213;-75
2021/11/21 05:45:59;;;;;;;43.15;27.80;;;9.00;99.90;;;8.98;71.25;100360.38;5043321;28;20189;-76
2021/11/21 05:48:28;;;;;;;37.45;24.45;;;8.90;99.90;;;8.99;71.27;100370.16;5045470;28;20272;-76
2021/11/21 05:50:57;;;;;;;35.28;23.77;;;8.90;99.90;;;9.01;71.49;100376.16;5043516;28;20224;-76
2021/11/21 05:53:27;;;;;;;37.60;24.83;;;8.90;99.90;;;8.99;71.65;100374.72;5042215;28;20239;-75
2021/11/21 05:55:56;;;;;;;42.65;25.08;;;8.90;99.90;;;9.02;71.67;100375.13;5040628;28;20189;-77
2021/11/21 05:58:25;;;;;;;38.28;25.90;;;8.90;99.90;;;9.05;71.98;100361.22;5041419;28;20247;-77
2021/11/21 06:00:54;;;;;;;33.25;22.52;;;9.00;99.90;;;8.91;71.76;100369.50;5040650;28;20252;-76
2021/11/21 06:03:24;;;;;;;38.28;24.35;;;8.90;99.90;;;9.00;71.75;100363.72;5040439;28;20292;-75
2021/11/21 06:05:52;;;;;;;35.50;21.80;;;8.90;99.90;;;9.00;71.39;100363.72;5040214;28;20173;-77
2021/11/21 06:08:21;;;;;;;35.65;23.27;;;8.90;99.90;;;9.01;71.69;100359.97;5038884;28;20212;-77
2021/11/21 06:10:51;;;;;;;34.67;23.50;;;8.90;99.90;;;8.99;71.58;100353.13;5041068;28;20181;-77
2021/11/21 06:13:21;;;;;;;36.80;23.05;;;8.90;99.90;;;8.99;71.61;100345.88;5040059;28;20201;-77
2021/11/21 06:15:50;;;;;;;35.60;23.80;;;8.90;99.90;;;8.92;71.74;100350.41;5041236;28;20701;-77
2021/11/21 06:18:19;;;;;;;39.50;23.85;;;8.90;99.90;;;8.95;71.65;100344.63;5043366;28;20622;-76
2021/11/21 06:20:48;;;;;;;33.50;22.33;;;8.90;99.90;;;8.94;71.61;100337.56;5042615;28;20174;-77
2021/11/21 06:23:17;;;;;;;34.95;22.33;;;8.90;99.90;;;8.91;71.78;100342.50;5052522;28;20216;-75
2021/11/21 06:25:46;;;;;;;37.50;23.33;;;8.90;99.90;;;8.86;71.75;100334.22;5054703;28;20173;-75
2021/11/21 06:28:18;;;;;;;32.63;22.83;;;8.80;99.90;;;8.96;71.50;100343.56;5070033;28;20208;-74
2021/11/21 06:30:47;;;;;;;41.53;22.55;;;8.80;99.90;;;8.91;71.62;100329.84;5053737;28;20196;-74
2021/11/21 06:33:16;;;;;;;30.85;22.05;;;8.80;99.90;;;8.89;71.64;100329.25;5055166;28;20281;-75
2021/11/21 06:35:45;;;;;;;37.97;23.00;;;8.80;99.90;;;8.99;71.43;100331.53;5055638;28;20166;-73
2021/11/21 06:38:17;;;;;;;33.47;23.92;;;8.90;99.90;;;8.94;71.21;100329.47;5050778;28;20212;-79
2021/11/21 06:40:46;;;;;;;29.92;21.25;;;8.80;99.90;;;8.97;71.13;100329.03;5038717;28;20248;-76
2021/11/21 06:43:17;;;;;;;32.15;22.70;;;8.90;99.90;;;9.01;71.07;100329.44;5040043;28;20205;-77
2021/11/21 06:45:46;;;;;;;32.53;22.15;;;8.90;99.90;;;9.07;70.89;100334.88;5039320;28;20190;-77
2021/11/21 06:48:19;;;;;;;32.50;22.17;;;9.00;99.90;;;9.12;70.62;100332.38;5040398;28;20196;-75
2021/11/21 06:50:52;;;;;;;31.63;22.05;;;9.00;99.90;;;9.12;70.57;100340.47;5041462;28;20201;-77
2021/11/21 06:53:23;;;;;;;30.60;19.95;;;9.10;99.90;;;9.10;70.63;100342.53;5041155;28;20292;-77
2021/11/21 06:55:52;;;;;;;30.08;19.50;;;9.00;99.90;;;9.14;70.54;100335.72;5039442;28;20186;-77
2021/11/21 06:58:23;;;;;;;30.15;20.40;;;9.10;99.90;;;9.14;70.63;100337.56;5041007;28;20500;-78
2021/11/21 07:00:51;;;;;;;27.90;20.15;;;9.10;99.90;;;9.08;70.80;100336.53;5044680;28;20169;-77
2021/11/21 07:03:20;;;;;;;30.13;20.05;;;9.00;99.90;;;9.10;70.76;100336.34;5044050;28;20244;-77
2021/11/21 07:05:49;;;;;;;28.52;20.25;;;9.00;99.90;;;9.12;70.69;100340.47;5044450;28;20174;-77
2021/11/21 07:08:18;;;;;;;28.65;20.63;;;9.00;99.90;;;9.14;70.82;100337.56;5042363;28;20182;-76
2021/11/21 07:10:47;;;;;;;28.15;19.08;;;9.00;99.90;;;9.10;70.77;100347.94;5041341;28;20202;-76
2021/11/21 07:13:16;;;;;;;31.38;20.13;;;9.00;99.90;;;9.15;70.69;100345.44;5042711;28;20267;-76
2021/11/21 07:15:46;;;;;;;30.92;20.90;;;9.00;99.90;;;9.05;71.34;100345.03;5035748;28;20192;-75
2021/11/21 07:18:15;;;;;;;32.83;22.17;;;9.00;99.90;;;9.09;71.47;100343.59;5038825;28;20265;-76
2021/11/21 07:20:44;;;;;;;28.42;18.70;;;9.00;99.90;;;9.09;71.38;100349.00;5046079;28;20650;-76
2021/11/21 07:23:19;;;;;;;34.75;20.73;;;9.00;99.90;;;9.13;71.30;100344.84;5046880;28;20205;-76
2021/11/21 07:25:48;;;;;;;32.55;20.98;;;9.00;99.90;;;9.13;71.24;100331.34;5046697;28;20181;-76
2021/11/21 07:28:16;;;;;;;34.22;19.30;;;9.00;99.90;;;9.09;71.53;100338.19;5048757;28;20280;-75
2021/11/21 07:30:47;;;;;;;30.70;18.40;;;9.00;99.90;;;9.03;71.96;100339.00;5045770;28;20205;-76
2021/11/21 07:33:16;;;;;;;38.08;19.20;;;9.00;99.90;;;9.06;72.16;100341.28;5037658;28;20224;-76
2021/11/21 07:35:45;;;;;;;29.75;19.73;;;9.00;99.90;;;8.94;73.24;100337.56;5036596;28;20602;-76
2021/11/21 07:38:13;;;;;;;28.75;19.30;;;8.90;99.90;;;8.86;74.06;100359.31;5036068;28;20272;-76
2021/11/21 07:40:42;;;;;;;26.95;18.77;;;8.80;99.90;;;8.78;74.67;100354.09;5035646;28;20162;-76
2021/11/21 07:43:11;;;;;;;37.22;21.83;;;8.80;99.90;;;8.79;75.27;100357.63;5035697;28;20205;-76
2021/11/21 07:45:40;;;;;;;31.85;21.30;;;8.70;99.90;;;8.67;75.49;100358.22;5036600;28;20201;-76
2021/11/21 07:48:11;;;;;;;32.13;19.00;;;8.70;99.90;;;8.68;76.11;100353.66;5036439;28;20213;-77
2021/11/21 07:50:40;;;;;;;31.60;20.48;;;8.60;99.90;;;8.74;76.14;100358.25;5036351;28;20288;-76
2021/11/21 07:53:09;;;;;;;31.55;19.88;;;8.60;99.90;;;8.75;76.30;100353.69;5035626;28;20232;-75
2021/11/21 07:55:38;;;;;;;32.17;19.45;;;8.60;99.90;;;8.82;76.45;100365.31;5035710;28;20213;-76
2021/11/21 07:58:07;;;;;;;31.85;19.52;;;8.70;99.90;;;8.83;76.47;100362.44;5036749;28;20198;-76
2021/11/21 08:00:36;;;;;;;34.83;21.38;;;8.70;99.90;;;8.81;76.57;100371.78;5034499;28;20654;-77
2021/11/21 08:03:06;;;;;;;32.38;21.25;;;8.70;99.90;;;8.74;76.94;100363.66;5035760;28;20224;-76
2021/11/21 08:05:36;;;;;;;30.85;21.02;;;8.70;99.90;;;8.69;76.94;100366.13;5034139;28;20193;-76
2021/11/21 08:08:05;;;;;;;32.20;21.63;;;8.70;99.90;;;8.66;77.52;100371.94;5035588;28;20196;-78
2021/11/21 08:10:36;;;;;;;36.60;22.02;;;8.60;99.90;;;8.78;77.54;100372.16;5034583;28;20251;-77
2021/11/21 08:13:08;;;;;;;34.42;21.27;;;8.60;99.90;;;8.82;77.29;100378.81;5036223;28;20205;-76
2021/11/21 08:15:37;;;;;;;31.67;18.67;;;8.70;99.90;;;8.67;77.70;100370.88;5037245;28;20224;-77
2021/11/21 08:18:06;;;;;;;33.53;23.02;;;8.60;99.90;;;8.69;78.14;100379.59;5037153;28;20275;-77
2021/11/21 08:20:36;;;;;;;30.50;20.05;;;8.60;99.90;;;8.85;77.40;100381.94;5037640;28;20216;-76
2021/11/21 08:23:05;;;;;;;36.15;18.70;;;8.70;99.90;;;8.79;78.07;100384.63;5036758;28;20209;-76
2021/11/21 08:25:35;;;;;;;35.95;19.85;;;8.70;99.90;;;8.76;78.00;100391.25;5037410;28;20189;-76
2021/11/21 08:28:04;;;;;;;34.13;21.48;;;8.70;99.90;;;8.78;77.76;100386.47;5037984;28;20193;-77
2021/11/21 08:30:36;;;;;;;34.33;20.48;;;8.70;99.90;;;8.68;78.41;100380.63;5036240;28;20240;-76
2021/11/21 08:33:06;;;;;;;30.52;18.77;;;8.60;99.90;;;8.67;78.57;100381.66;5035580;28;20213;-77
2021/11/21 08:35:37;;;;;;;30.80;19.45;;;8.60;99.90;;;8.59;78.65;100377.28;5036942;28;20219;-76
2021/11/21 08:38:07;;;;;;;32.63;20.85;;;8.50;99.90;;;8.55;78.92;100380.59;5034340;28;20251;-78
2021/11/21 08:40:36;;;;;;;34.50;19.40;;;8.50;99.90;;;8.64;78.83;100379.38;5035833;28;20176;-76
2021/11/21 08:43:05;;;;;;;36.83;19.73;;;8.50;99.90;;;8.58;79.28;100385.56;5035281;28;20229;-76
2021/11/21 08:45:35;;;;;;;29.38;19.63;;;8.50;99.90;;;8.57;79.28;100381.22;5034536;28;20529;-75
2021/11/21 08:48:04;;;;;;;36.00;21.00;;;8.50;99.90;;;8.70;79.52;100383.97;5035453;28;20700;-76
2021/11/21 08:50:34;;;;;;;31.50;19.83;;;8.60;99.90;;;8.79;79.10;100380.06;5035216;28;20559;-76
2021/11/21 08:53:04;;;;;;;30.00;20.05;;;8.60;99.90;;;8.79;79.18;100381.91;5035541;28;20604;-77
2021/11/21 08:55:35;;;;;;;31.73;20.50;;;8.70;99.90;;;9.02;78.65;100379.69;5035519;28;20260;-77
2021/11/21 08:58:06;;;;;;;29.70;20.00;;;8.80;99.90;;;8.93;78.84;100384.44;5036188;28;20188;-77
2021/11/21 09:00:35;;;;;;;28.02;19.60;;;8.80;99.90;;;8.92;78.84;100377.38;5037139;28;20201;-77
2021/11/21 09:03:04;;;;;;;30.05;19.48;;;8.80;99.90;;;8.86;78.95;100375.50;5038956;28;20205;-77
2021/11/21 09:05:33;;;;;;;34.90;20.35;;;8.70;99.90;;;8.99;78.74;100378.25;5037986;28;20178;-77
2021/11/21 09:08:20;;;;;;;31.58;20.10;;;8.80;99.90;;;8.87;78.80;100379.88;5041164;28;20563;-77
2021/11/21 09:10:49;;;;;;;29.15;16.92;;;8.80;99.90;;;8.77;78.76;100382.13;5044885;28;20205;-76
2021/11/21 09:13:18;;;;;;;32.55;19.13;;;8.70;99.90;;;8.96;78.73;100384.03;5047705;28;20216;-76
2021/11/21 09:15:48;;;;;;;30.65;19.40;;;8.80;99.90;;;9.09;78.53;100378.69;5046934;28;20193;-77
2021/11/21 09:18:19;;;;;;;24.10;16.55;;;8.90;99.90;;;9.22;78.57;100379.72;5050450;28;20201;-75
2021/11/21 09:20:48;;;;;;;27.05;18.15;;;8.90;99.90;;;9.27;77.86;100388.03;5051298;28;20190;-76
2021/11/21 09:23:23;;;;;;;26.33;16.67;;;9.00;99.90;;;9.04;77.88;100386.56;5047795;28;20570;-76
2021/11/21 09:25:54;;;;;;;32.70;19.60;;;9.00;99.90;;;9.19;77.98;100382.84;5026983;28;20244;-77
2021/11/21 09:28:25;;;;;;;32.55;17.77;;;9.10;99.90;;;9.12;78.25;100382.81;5046248;28;20194;-76
2021/11/21 09:30:56;;;;;;;30.38;18.75;;;9.00;99.90;;;9.18;78.05;100375.78;5031188;28;20195;-75
2021/11/21 09:33:28;;;;;;;27.95;18.33;;;9.10;99.90;;;9.11;78.26;100376.59;5023137;28;20206;-76
2021/11/21 09:35:57;;;;;;;34.35;24.40;;;9.00;99.90;;;9.33;78.11;100381.81;5016493;28;20240;-76
2021/11/21 09:38:28;;;;;;;25.65;17.88;;;9.10;99.90;;;9.30;77.79;100390.31;5015858;28;20193;-76
2021/11/21 09:40:57;;;;;;;25.98;16.30;;;9.10;99.90;;;9.35;78.07;100387.84;5016984;28;20173;-76
2021/11/21 09:43:26;;;;;;;26.00;16.95;;;9.20;99.90;;;9.28;78.17;100378.91;5016310;28;20218;-77
2021/11/21 09:45:55;;;;;;;24.50;18.55;;;9.20;99.90;;;9.12;78.25;100378.25;5024695;28;20194;-78
2021/11/21 09:48:31;;;;;;;26.08;18.10;;;9.10;99.90;;;8.99;78.41;100375.56;5030905;28;20189;-77
2021/11/21 09:51:02;;;;;;;28.67;17.92;;;9.00;99.90;;;9.11;78.78;100371.19;5030573;28;20218;-77
2021/11/21 09:53:33;;;;;;;32.85;19.13;;;9.00;99.90;;;9.21;78.03;100373.50;5027926;28;20245;-77
2021/11/21 09:56:02;;;;;;;26.17;19.02;;;9.10;99.90;;;9.15;78.51;100367.03;5021906;28;20238;-78
2021/11/21 09:58:31;;;;;;;22.15;16.33;;;9.10;99.90;;;9.11;78.34;100363.09;5015204;28;20209;-78
2021/11/21 10:01:00;;;;;;;30.42;18.83;;;9.00;99.90;;;9.14;78.20;100357.31;5015853;28;20190;-77
2021/11/21 10:03:30;;;;;;;28.98;18.77;;;9.00;99.90;;;9.17;78.31;100358.75;5014423;28;20217;-77
2021/11/21 10:06:06;;;;;;;27.42;17.63;;;9.00;99.90;;;9.21;77.94;100359.16;5015530;28;20174;-79
2021/11/21 10:08:50;;;;;;;27.17;20.30;;;9.10;99.90;;;9.29;77.69;100356.28;5013235;28;20392;-77
2021/11/21 10:11:20;;;;;;;26.38;16.02;;;9.10;99.90;;;9.31;77.58;100356.88;5014240;28;20206;-76
2021/11/21 10:13:55;;;;;;;26.50;18.17;;;9.10;99.90;;;9.30;77.24;100355.22;5013196;28;20222;-77
2021/11/21 10:16:31;;;;;;;29.30;19.05;;;9.20;99.90;;;9.31;77.12;100354.19;5014851;28;20197;-76
2021/11/21 10:19:04;;;;;;;29.70;17.77;;;9.20;99.90;;;9.37;77.04;100343.41;5013877;28;20232;-78
2021/11/21 10:21:36;;;;;;;28.67;18.98;;;9.20;99.90;;;9.34;77.03;100348.41;5014072;28;20710;-78